Time;durP1;ratioP1;P1;durP2;ratioP2;P2;SDS_P1;SDS_P2;PMS_P1;PMS_P2;Temp;Humidity;BMP_temperature;BMP_pressure;BME280_temperature;BME280_humidity;BME280_pressure;Samples;Min_cycle;Max_cycle;Signal;HPM_P1;HPM_P2
2022/11/14 00:01:48;;;;;;;21.87;11.78;;;;;;;2.47;96.08;98840.80;1639376;87;21037;-80
2022/11/14 00:04:34;;;;;;;23.20;12.00;;;;;;;2.48;95.78;98837.74;1637781;87;21071;-80
2022/11/14 00:07:19;;;;;;;22.85;11.43;;;;;;;2.47;95.37;98839.91;1643514;87;21005;-80
2022/11/14 00:10:05;;;;;;;22.52;10.78;;;;;;;2.49;95.52;98840.84;1637871;87;21021;-80
2022/11/14 00:12:51;;;;;;;22.40;11.78;;;;;;;2.47;95.77;98842.53;1627207;87;21031;-80
2022/11/14 00:15:37;;;;;;;28.17;12.65;;;;;;;2.42;95.68;98849.01;1640583;87;21012;-80
2022/11/14 00:18:24;;;;;;;40.35;12.50;;;;;;;2.37;96.01;98845.44;1637327;87;21449;-81
2022/11/14 00:21:09;;;;;;;31.33;11.85;;;;;;;2.32;96.08;98847.95;1637862;87;21008;-81
2022/11/14 00:23:55;;;;;;;;;;;;;;;2.27;95.92;98848.30;1634172;87;21028;-81
2022/11/14 00:26:40;;;;;;;37.95;11.03;;;;;;;2.22;95.79;98847.34;1631402;87;20370;-83
2022/11/14 00:29:25;;;;;;;27.17;11.57;;;;;;;2.11;95.97;98844.52;1633145;87;21493;-83
2022/11/14 00:32:10;;;;;;;25.08;13.22;;;;;;;2.11;95.88;98841.91;1643696;87;21016;-80
2022/11/14 00:34:55;;;;;;;34.43;12.80;;;;;;;2.11;95.69;98845.41;1642364;87;20969;-79
2022/11/14 00:37:41;;;;;;;;;;;;;;;2.12;95.64;98839.77;1646216;87;21049;-79
2022/11/14 00:40:26;;;;;;;21.30;11.50;;;;;;;2.11;96.38;98838.88;1632019;87;20096;-81
2022/11/14 00:43:11;;;;;;;29.87;13.10;;;;;;;2.11;96.29;98841.91;1641728;87;21461;-80
2022/11/14 00:45:56;;;;;;;25.55;12.82;;;;;;;2.16;96.17;98839.39;1636603;87;21659;-80
2022/11/14 00:48:42;;;;;;;23.95;12.00;;;;;;;2.10;96.32;98838.43;1625184;87;21055;-80
2022/11/14 00:51:27;;;;;;;23.30;12.63;;;;;;;2.08;95.75;98845.34;1625571;87;21063;-80
2022/11/14 00:54:12;;;;;;;24.87;11.30;;;;;;;2.09;95.83;98840.59;1641795;87;21072;-80
2022/11/14 00:56:57;;;;;;;26.97;12.85;;;;;;;2.10;95.75;98839.73;1637396;87;21133;-80
2022/11/14 00:59:42;;;;;;;28.65;11.55;;;;;;;2.09;95.77;98836.67;1641780;87;21044;-80
2022/11/14 01:02:27;;;;;;;27.05;13.03;;;;;;;2.14;95.51;98839.77;1631987;87;21076;-80
2022/11/14 01:05:12;;;;;;;28.10;13.08;;;;;;;2.16;95.53;98838.09;1632952;87;21036;-80
2022/11/14 01:07:58;;;;;;;26.07;13.35;;;;;;;2.24;96.11;98836.05;1643784;87;21537;-80
2022/11/14 01:10:47;;;;;;;24.05;11.18;;;;;;;2.34;95.98;98831.88;1635508;87;21410;-81
2022/11/14 01:13:32;;;;;;;20.88;11.70;;;;;;;2.36;95.91;98831.88;1640924;87;21100;-80
2022/11/14 01:16:18;;;;;;;20.23;10.38;;;;;;;2.38;95.97;98830.19;1638184;87;21030;-80
2022/11/14 01:19:04;;;;;;;19.82;10.82;;;;;;;2.41;95.74;98834.59;1634285;87;21080;-81
2022/11/14 01:21:49;;;;;;;19.70;10.45;;;;;;;2.46;95.82;98830.31;1634942;87;21012;-81
2022/11/14 01:24:34;;;;;;;19.32;10.63;;;;;;;2.47;95.50;98831.65;1627690;87;21454;-79
2022/11/14 01:27:20;;;;;;;18.50;10.53;;;;;;;2.45;95.30;98829.86;1630984;87;21005;-81
2022/11/14 01:30:06;;;;;;;18.82;11.22;;;;;;;2.48;95.87;98831.20;1631508;87;21145;-80
2022/11/14 01:32:53;;;;;;;20.15;10.53;;;;;;;2.50;95.73;98819.05;1638516;87;21066;-80
2022/11/14 01:35:38;;;;;;;19.15;11.25;;;;;;;2.48;95.32;98822.05;1640379;87;21040;-80
2022/11/14 01:38:23;;;;;;;20.40;11.28;;;;;;;2.51;95.82;98815.56;1641938;87;21024;-80
2022/11/14 01:41:13;;;;;;;18.70;11.03;;;;;;;2.54;95.74;98816.04;1632318;87;21506;-79
2022/11/14 01:44:00;;;;;;;24.47;12.00;;;;;;;2.53;95.41;98811.22;1636496;87;21071;-79
2022/11/14 01:46:49;;;;;;;24.35;13.28;;;;;;;2.46;95.03;98812.86;1609190;87;21278;-80
2022/11/14 01:49:39;;;;;;;22.93;12.58;;;;;;;2.38;95.13;98808.81;1610919;87;21057;-80
2022/11/14 01:52:29;;;;;;;22.62;12.55;;;;;;;2.31;94.56;98805.65;1639377;87;21577;-80
2022/11/14 01:55:14;;;;;;;22.15;12.28;;;;;;;2.21;94.48;98811.14;1636593;87;21061;-80
2022/11/14 01:58:00;;;;;;;20.52;11.55;;;;;;;2.17;94.69;98814.58;1637343;87;21061;-80
2022/11/14 02:00:45;;;;;;;27.10;11.70;;;;;;;2.05;94.21;98812.63;1627367;88;21048;-79
2022/11/14 02:03:31;;;;;;;26.10;11.90;;;;;;;1.88;93.96;98812.31;1620320;88;21550;-78
2022/11/14 02:06:19;;;;;;;20.40;11.93;;;;;;;1.74;93.92;98819.87;1624857;87;21088;-78
2022/11/14 02:09:07;;;;;;;23.47;11.70;;;;;;;1.62;94.26;98814.42;1630810;88;21005;-78
2022/11/14 02:11:54;;;;;;;21.33;10.82;;;;;;;1.47;94.78;98817.19;1576571;88;21010;-79
2022/11/14 02:14:44;;;;;;;21.17;10.85;;;;;;;1.37;94.79;98820.02;1620595;87;21063;-79
2022/11/14 02:17:30;;;;;;;23.95;10.95;;;;;;;1.31;94.77;98820.80;1625700;87;21438;-79
2022/11/14 02:20:31;;;;;;;20.50;10.43;;;;;;;1.31;95.34;98821.20;1630346;87;21055;-79
2022/11/14 02:23:31;;;;;;;17.57;10.13;;;;;;;1.27;95.06;98821.57;1628087;87;21216;-80
2022/11/14 02:26:18;;;;;;;21.50;11.65;;;;;;;1.32;95.88;98830.80;1628181;87;21484;-79
2022/11/14 02:29:07;;;;;;;18.57;9.40;;;;;;;1.39;95.94;98823.97;1627826;87;21028;-78
2022/11/14 02:31:52;;;;;;;19.25;10.15;;;;;;;1.43;95.98;98824.09;1621933;88;21036;-80
2022/11/14 02:34:38;;;;;;;19.75;10.88;;;;;;;1.44;95.91;98818.01;1646289;87;21039;-80
2022/11/14 02:37:24;;;;;;;19.65;9.95;;;;;;;1.43;95.86;98825.39;1641160;87;21003;-80
2022/11/14 02:40:10;;;;;;;21.85;10.05;;;;;;;1.42;95.71;98820.99;1630613;87;21056;-79
2022/11/14 02:42:55;;;;;;;21.68;9.85;;;;;;;1.38;95.71;98819.61;1630188;87;21052;-80
2022/11/14 02:45:40;;;;;;;28.95;9.58;;;;;;;1.38;96.16;98818.30;1645145;87;21501;-80
2022/11/14 02:48:25;;;;;;;28.10;9.03;;;;;;;1.37;95.69;98820.46;1642774;87;21019;-81
2022/11/14 02:51:10;;;;;;;39.03;10.85;;;;;;;1.27;95.40;98818.06;1631475;87;21279;-80
2022/11/14 02:53:55;;;;;;;40.15;9.13;;;;;;;1.14;95.45;98823.05;1627079;87;21063;-82
2022/11/14 02:56:40;;;;;;;25.65;9.65;;;;;;;1.02;95.28;98816.23;1635319;87;21128;-82
2022/11/14 02:59:25;;;;;;;27.70;9.55;;;;;;;0.88;95.47;98820.71;1624303;88;21470;-81
2022/11/14 03:02:10;;;;;;;37.83;9.70;;;;;;;0.84;95.63;98814.09;1620636;88;21061;-80
2022/11/14 03:04:55;;;;;;;;;;;;;;;0.77;95.78;98812.66;1632999;88;21454;-81
2022/11/14 03:07:41;;;;;;;19.35;9.35;;;;;;;0.71;96.01;98809.02;1630347;88;20153;-81
2022/11/14 03:10:27;;;;;;;21.15;9.30;;;;;;;0.66;96.06;98804.98;1614226;88;21065;-82
2022/11/14 03:13:11;;;;;;;15.63;8.38;;;;;;;0.61;95.97;98804.89;1625119;88;21462;-81
2022/11/14 03:15:56;;;;;;;17.30;8.88;;;;;;;0.57;95.73;98800.85;1620407;88;21021;-81
2022/11/14 03:18:42;;;;;;;15.60;8.80;;;;;;;0.52;95.74;98798.15;1631899;88;21832;-81
2022/11/14 03:21:27;;;;;;;14.60;8.73;;;;;;;0.47;95.93;98795.45;1614275;88;21041;-81
2022/11/14 03:24:12;;;;;;;13.25;7.83;;;;;;;0.46;95.90;98797.56;1629510;88;21457;-81
2022/11/14 03:26:57;;;;;;;17.40;8.05;;;;;;;0.48;95.82;98793.70;1631715;88;20997;-82
2022/11/14 03:29:43;;;;;;;17.35;8.60;;;;;;;0.45;95.68;98801.03;1622348;88;21025;-81
2022/11/14 03:32:28;;;;;;;15.28;8.35;;;;;;;0.37;95.64;98799.54;1632127;88;21008;-81
2022/11/14 03:35:13;;;;;;;16.55;8.00;;;;;;;0.29;95.78;98798.91;1622249;88;21057;-82
2022/11/14 03:37:58;;;;;;;26.42;8.20;;;;;;;0.24;96.02;98799.66;1631046;88;21078;-80
2022/11/14 03:40:43;;;;;;;15.68;8.05;;;;;;;0.21;96.12;98799.58;1617563;88;21037;-80
2022/11/14 03:43:34;;;;;;;16.35;8.73;;;;;;;0.15;95.94;98799.43;1612631;88;21014;-80
2022/11/14 03:46:19;;;;;;;17.92;9.15;;;;;;;0.09;95.63;98794.93;1618034;88;21494;-81
2022/11/14 03:49:05;;;;;;;16.12;8.73;;;;;;;0.05;95.60;98789.21;1630497;88;20997;-80
2022/11/14 03:51:50;;;;;;;16.37;8.38;;;;;;;-0.04;95.18;98787.66;1628483;88;21073;-81
2022/11/14 03:54:34;;;;;;;16.80;9.35;;;;;;;-0.09;95.45;98786.66;1632019;88;21015;-82
2022/11/14 03:57:19;;;;;;;20.55;9.23;;;;;;;-0.14;95.64;98772.20;1632417;87;21033;-80
2022/11/14 04:00:06;;;;;;;14.25;9.30;;;;;;;-0.08;95.60;98785.82;1648176;87;21016;-81
2022/11/14 04:02:53;;;;;;;17.95;9.25;;;;;;;-0.10;95.55;98782.27;1640511;87;21063;-81
2022/11/14 04:05:40;;;;;;;18.23;9.33;;;;;;;-0.07;95.20;98786.27;1633036;87;21454;-81
2022/11/14 04:08:26;;;;;;;13.28;8.05;;;;;;;-0.14;95.44;98783.52;1650285;87;21095;-81
2022/11/14 04:11:11;;;;;;;14.63;8.50;;;;;;;-0.15;94.81;98789.58;1651373;87;21063;-79
2022/11/14 04:13:56;;;;;;;33.28;9.95;;;;;;;-0.15;94.94;98786.97;1643875;87;22156;-79
2022/11/14 04:16:41;;;;;;;15.90;9.15;;;;;;;-0.20;94.99;98785.08;1648654;87;21020;-82
2022/11/14 04:19:26;;;;;;;13.05;7.72;;;;;;;-0.25;95.02;98782.33;1651966;87;21024;-81
2022/11/14 04:22:11;;;;;;;13.95;7.80;;;;;;;-0.35;95.02;98779.91;1649870;87;21043;-83
2022/11/14 04:24:58;;;;;;;13.62;8.05;;;;;;;-0.39;95.42;98784.58;1648537;87;21438;-81
2022/11/14 04:27:43;;;;;;;16.77;8.58;;;;;;;-0.43;95.59;98786.22;1650570;87;21028;-84
2022/11/14 04:30:30;;;;;;;17.17;8.75;;;;;;;-0.45;95.49;98785.27;1639830;87;21055;-83
2022/11/14 04:33:15;;;;;;;15.38;9.33;;;;;;;-0.51;95.42;98786.42;1637102;87;21180;-83
2022/11/14 04:36:00;;;;;;;16.50;9.65;;;;;;;-0.58;95.65;98783.20;1650035;87;21132;-79
2022/11/14 04:38:45;;;;;;;33.00;12.75;;;;;;;-0.56;95.57;98785.41;1627802;87;21118;-79
2022/11/14 04:41:29;;;;;;;;;;;;;;;-0.57;96.05;98781.05;1655469;87;21033;-80
2022/11/14 04:44:15;;;;;;;35.23;11.20;;;;;;;-0.54;96.04;98773.33;1654117;87;20115;-80
2022/11/14 04:46:59;;;;;;;23.73;10.10;;;;;;;-0.56;96.32;98785.41;1643551;87;21008;-78
2022/11/14 04:49:46;;;;;;;18.67;9.70;;;;;;;-0.60;95.81;98775.74;1611000;87;20991;-79
2022/11/14 04:52:31;;;;;;;17.02;9.83;;;;;;;-0.65;95.87;98775.63;1649893;87;21418;-79
2022/11/14 04:55:16;;;;;;;22.75;8.73;;;;;;;-0.68;96.17;98780.33;1634594;87;21055;-79
2022/11/14 04:58:01;;;;;;;17.62;9.55;;;;;;;-0.71;96.01;98773.72;1641865;86;21111;-79
2022/11/14 05:00:46;;;;;;;19.07;9.30;;;;;;;-0.70;95.90;98775.92;1618355;87;21088;-78
2022/11/14 05:03:31;;;;;;;18.65;9.40;;;;;;;-0.70;96.01;98774.62;1636336;87;21536;-79
2022/11/14 05:06:17;;;;;;;14.23;8.75;;;;;;;-0.64;96.09;98777.80;1628106;87;20998;-75
2022/11/14 05:09:02;;;;;;;16.27;8.58;;;;;;;-0.58;96.15;98770.18;1617413;87;21084;-76
2022/11/14 05:11:47;;;;;;;16.20;9.10;;;;;;;-0.55;96.02;98776.75;1637582;87;20996;-76
2022/11/14 05:14:33;;;;;;;16.73;8.68;;;;;;;-0.56;96.19;98777.59;1617432;87;21108;-76
2022/11/14 05:17:18;;;;;;;18.07;8.75;;;;;;;-0.51;96.02;98777.74;1617231;87;20992;-77
2022/11/14 05:20:04;;;;;;;17.82;8.78;;;;;;;-0.49;95.63;98774.75;1617363;87;21453;-76
2022/11/14 05:22:55;;;;;;;21.02;8.45;;;;;;;-0.56;95.81;98781.09;1620536;87;20972;-78
2022/11/14 05:25:40;;;;;;;22.13;8.75;;;;;;;-0.59;96.19;98784.01;1624345;87;21055;-83
2022/11/14 05:28:25;;;;;;;20.82;9.03;;;;;;;-0.57;96.15;98782.35;1630238;87;21017;-80
2022/11/14 05:31:14;;;;;;;16.25;8.45;;;;;;;-0.57;96.17;98779.75;1621782;87;21420;-80
2022/11/14 05:33:58;;;;;;;17.73;8.83;;;;;;;-0.58;96.02;98783.20;1626141;87;21014;-81
2022/11/14 05:36:43;;;;;;;23.70;9.80;;;;;;;-0.59;95.34;98782.70;1633726;87;21039;-81
2022/11/14 05:39:30;;;;;;;17.60;8.58;;;;;;;-0.60;95.68;98779.65;1626379;87;20976;-81
2022/11/14 05:42:15;;;;;;;19.48;9.48;;;;;;;-0.58;95.73;98776.25;1622963;87;21060;-81
2022/11/14 05:45:00;;;;;;;21.97;8.93;;;;;;;-0.59;95.82;98774.90;1635826;87;21012;-81
2022/11/14 05:47:45;;;;;;;19.32;9.35;;;;;;;-0.60;95.92;98774.44;1626308;87;21008;-82
2022/11/14 05:50:30;;;;;;;16.00;9.20;;;;;;;-0.59;95.69;98775.80;1621554;87;21075;-82
2022/11/14 05:53:15;;;;;;;17.30;9.30;;;;;;;-0.56;96.20;98777.19;1621793;87;22125;-83
2022/11/14 05:56:05;;;;;;;20.35;10.72;;;;;;;-0.51;96.09;98779.05;1624327;87;21055;-81
2022/11/14 05:58:50;;;;;;;20.50;10.98;;;;;;;-0.45;96.27;98781.81;1633223;87;21502;-81
2022/11/14 06:01:36;;;;;;;26.68;11.40;;;;;;;-0.43;96.11;98786.63;1626317;87;21033;-81
2022/11/14 06:04:21;;;;;;;33.25;14.80;;;;;;;-0.35;96.35;98794.23;1633339;87;21035;-80
2022/11/14 06:07:06;;;;;;;35.92;13.60;;;;;;;-0.33;95.87;98788.64;1627350;87;21052;-80
2022/11/14 06:09:50;;;;;;;;;;;;;;;-0.31;96.08;98786.08;1628585;87;21398;-80
2022/11/14 06:12:35;;;;;;;23.33;11.67;;;;;;;-0.25;96.45;98784.93;1622517;87;20161;-80
2022/11/14 06:15:21;;;;;;;24.05;11.75;;;;;;;-0.18;96.42;98779.06;1621836;87;21044;-80
2022/11/14 06:18:05;;;;;;;22.67;10.93;;;;;;;-0.10;96.02;98781.86;1624316;87;21470;-81
2022/11/14 06:20:50;;;;;;;22.27;10.98;;;;;;;-0.06;96.27;98785.02;1629991;87;21095;-79
2022/11/14 06:23:36;;;;;;;26.07;12.10;;;;;;;0.04;96.69;98787.42;1626339;87;21198;-82
2022/11/14 06:26:25;;;;;;;26.65;11.55;;;;;;;0.12;96.74;98787.20;1621772;87;21060;-80
2022/11/14 06:29:10;;;;;;;27.25;11.65;;;;;;;0.19;96.61;98779.12;1638259;87;21060;-80
2022/11/14 06:31:55;;;;;;;28.50;12.78;;;;;;;0.28;96.50;98773.68;1643788;87;21038;-81
2022/11/14 06:34:40;;;;;;;28.35;12.98;;;;;;;0.26;96.37;98773.20;1642549;87;21033;-81
2022/11/14 06:37:26;;;;;;;31.35;13.30;;;;;;;0.31;96.60;98779.84;1643840;87;21025;-81
2022/11/14 06:40:11;;;;;;;26.57;12.20;;;;;;;0.38;96.58;98775.66;1644022;87;21040;-82
2022/11/14 06:42:56;;;;;;;26.68;12.10;;;;;;;0.46;96.18;98778.45;1643692;87;21013;-80
2022/11/14 06:45:41;;;;;;;18.92;10.70;;;;;;;0.53;96.25;98777.73;1644082;87;21083;-80
2022/11/14 06:48:27;;;;;;;22.02;11.40;;;;;;;0.61;95.84;98780.11;1643589;87;20989;-80
2022/11/14 06:51:13;;;;;;;22.13;11.80;;;;;;;0.68;95.84;98785.05;1643956;87;20997;-81
2022/11/14 06:53:58;;;;;;;20.52;11.25;;;;;;;0.73;95.98;98786.45;1643760;87;21020;-82
2022/11/14 06:56:43;;;;;;;22.58;10.68;;;;;;;0.81;95.94;98787.51;1643746;87;21521;-81
2022/11/14 06:59:28;;;;;;;23.30;12.13;;;;;;;0.83;95.82;98791.46;1630700;87;21029;-82
2022/11/14 07:02:13;;;;;;;22.00;10.08;;;;;;;0.89;95.96;98791.18;1626571;88;21009;-81
2022/11/14 07:04:58;;;;;;;18.98;10.82;;;;;;;0.97;96.23;98792.66;1606528;88;21393;-81
2022/11/14 07:07:43;;;;;;;21.20;10.10;;;;;;;1.05;96.46;98792.38;1612489;88;21041;-81
2022/11/14 07:10:29;;;;;;;18.42;9.35;;;;;;;1.12;96.33;98788.17;1611687;88;21017;-81
2022/11/14 07:13:14;;;;;;;18.30;9.73;;;;;;;1.20;96.45;98787.02;1596864;89;21007;-82
2022/11/14 07:15:59;;;;;;;16.57;9.33;;;;;;;1.28;96.28;98783.26;1587271;90;21029;-78
2022/11/14 07:18:45;;;;;;;17.32;9.48;;;;;;;1.34;96.01;98787.73;1579808;89;21506;-77
2022/11/14 07:21:33;;;;;;;27.37;16.12;;;;;;;1.33;95.56;98786.88;1579228;89;28200;-77
2022/11/14 07:24:21;;;;;;;37.63;16.70;;;;;;;1.43;94.06;98782.29;1574059;90;21052;-77
2022/11/14 07:27:13;;;;;;;42.20;16.55;;;;;;;1.39;94.25;98783.08;1607080;88;20998;-77
2022/11/14 07:29:58;;;;;;;31.20;15.35;;;;;;;1.37;93.78;98774.75;1600825;88;21470;-78
2022/11/14 07:32:44;;;;;;;37.08;15.83;;;;;;;1.31;93.89;98771.58;1601394;88;21235;-78
2022/11/14 07:35:29;;;;;;;36.55;17.48;;;;;;;1.28;93.56;98775.02;1620859;88;21096;-67
2022/11/14 07:38:14;;;;;;;30.60;13.98;;;;;;;1.26;93.75;98778.45;1629400;87;21028;-67
2022/11/14 07:41:06;;;;;;;24.85;12.88;;;;;;;1.25;93.87;98774.94;1619180;88;21066;-66
2022/11/14 07:43:51;;;;;;;26.05;12.18;;;;;;;1.25;93.72;98774.94;1612009;88;21458;-68
2022/11/14 07:46:36;;;;;;;18.48;10.03;;;;;;;1.23;93.55;98777.95;1606272;88;21041;-66
2022/11/14 07:49:21;;;;;;;10.90;7.37;;;;;;;1.25;94.02;98781.91;1606179;88;21077;-65
2022/11/14 07:52:06;;;;;;;11.93;7.35;;;;;;;1.27;93.22;98785.02;1605941;88;22119;-66
2022/11/14 07:54:51;;;;;;;13.98;8.25;;;;;;;1.29;93.58;98786.36;1596684;89;21475;-66
2022/11/14 07:57:36;;;;;;;18.87;10.43;;;;;;;1.27;92.71;98774.56;1574450;90;21526;-66
2022/11/14 08:00:21;;;;;;;21.15;10.70;;;;;;;1.24;92.80;98784.08;1624574;87;21079;-66
2022/11/14 08:03:09;;;;;;;25.23;11.22;;;;;;;1.18;92.46;98774.37;1604096;89;21011;-70
2022/11/14 08:06:04;;;;;;;21.05;10.40;;;;;;;1.19;92.51;98773.52;1640360;87;21024;-68
2022/11/14 08:08:48;;;;;;;25.27;12.10;;;;;;;1.18;92.74;98772.66;1646097;87;21020;-68
2022/11/14 08:11:48;;;;;;;31.57;13.55;;;;;;;1.17;92.75;98776.09;1633183;86;21478;-74
2022/11/14 08:14:34;;;;;;;28.90;14.13;;;;;;;1.17;92.65;98779.14;1642141;86;21047;-74
2022/11/14 08:17:22;;;;;;;23.40;12.45;;;;;;;1.17;92.92;98766.95;1643268;86;21031;-69
2022/11/14 08:20:09;;;;;;;28.60;13.53;;;;;;;1.20;92.70;98776.58;1637386;86;21007;-68
2022/11/14 08:23:06;;;;;;;42.30;28.27;;;;;;;1.22;92.80;98769.67;1632805;86;21090;-69
2022/11/14 08:25:51;;;;;;;30.15;14.00;;;;;;;1.24;93.27;98773.19;1623812;87;21068;-69
2022/11/14 08:28:36;;;;;;;26.05;13.05;;;;;;;1.28;92.68;98771.51;1606587;89;21142;-68
2022/11/14 08:31:22;;;;;;;25.08;12.85;;;;;;;1.27;92.87;98771.06;1642714;87;21422;-71
2022/11/14 08:34:07;;;;;;;27.40;13.05;;;;;;;1.31;92.63;98774.20;1627941;87;21076;-69
2022/11/14 08:36:52;;;;;;;37.00;15.80;;;;;;;1.25;92.09;98771.47;1627380;87;21063;-69
2022/11/14 08:39:36;;;;;;;;;;;;;;;1.26;92.78;98770.61;1640063;86;21023;-68
2022/11/14 08:42:21;;;;;;;34.50;16.27;;;;;;;1.32;92.76;98770.72;1641621;86;20137;-68
2022/11/14 08:45:08;;;;;;;40.70;17.10;;;;;;;1.39;93.20;98769.13;1624426;87;21020;-71
2022/11/14 08:47:53;;;;;;;38.20;17.00;;;;;;;1.53;93.58;98764.19;1603594;88;21149;-70
2022/11/14 08:50:38;;;;;;;30.40;15.80;;;;;;;1.63;93.35;98753.06;1606955;88;21048;-71
2022/11/14 08:53:24;;;;;;;31.52;15.88;;;;;;;1.65;92.91;98750.03;1630400;87;21481;-71
2022/11/14 08:56:10;;;;;;;34.08;15.85;;;;;;;1.78;93.02;98747.21;1630223;87;21449;-69
2022/11/14 08:58:55;;;;;;;35.65;16.90;;;;;;;1.71;92.34;98730.54;1640130;86;21055;-69
2022/11/14 09:01:40;;;;;;;31.05;15.55;;;;;;;1.74;92.92;98737.55;1624689;88;21552;-70
2022/11/14 09:04:25;;;;;;;27.55;14.98;;;;;;;1.88;93.40;98736.92;1625346;88;21010;-69
2022/11/14 09:07:10;;;;;;;28.95;15.63;;;;;;;2.03;93.26;98728.48;1626054;88;21099;-69
2022/11/14 09:09:54;;;;;;;30.65;15.23;;;;;;;2.13;92.54;98730.80;1623776;88;21439;-69
2022/11/14 09:12:40;;;;;;;27.40;14.87;;;;;;;2.07;92.67;98736.80;1624840;88;20998;-68
2022/11/14 09:15:28;;;;;;;27.62;14.70;;;;;;;2.14;93.13;98732.14;1620219;88;21017;-69
2022/11/14 09:18:14;;;;;;;25.52;13.10;;;;;;;2.23;92.90;98723.14;1617488;88;21070;-69
2022/11/14 09:21:05;;;;;;;27.52;13.90;;;;;;;2.30;92.91;98721.50;1625976;88;21014;-69
2022/11/14 09:23:51;;;;;;;24.07;12.53;;;;;;;2.39;92.50;98719.44;1624257;88;21070;-69
2022/11/14 09:26:36;;;;;;;26.50;14.30;;;;;;;2.43;92.53;98709.48;1617660;88;21030;-69
2022/11/14 09:29:21;;;;;;;29.30;16.17;;;;;;;2.47;91.94;98707.36;1628669;88;21053;-69
2022/11/14 09:32:06;;;;;;;33.83;17.15;;;;;;;2.51;92.30;98703.05;1621409;88;21052;-69
2022/11/14 09:34:51;;;;;;;28.83;16.42;;;;;;;2.52;92.13;98696.09;1611298;88;21069;-68
2022/11/14 09:37:36;;;;;;;32.60;16.45;;;;;;;2.56;92.02;98694.83;1628903;88;21105;-71
2022/11/14 09:40:21;;;;;;;28.23;16.32;;;;;;;2.56;91.34;98692.63;1628725;88;21053;-71
2022/11/14 09:43:34;;;;;;;31.95;15.58;;;;;;;2.54;91.61;98694.36;1628596;88;21092;-69
2022/11/14 09:46:23;;;;;;;39.05;17.35;;;;;;;2.59;91.81;98681.80;1628692;88;21091;-68
2022/11/14 09:49:14;;;;;;;37.00;17.55;;;;;;;2.68;92.02;98686.27;1621975;88;21460;-70
2022/11/14 09:52:37;;;;;;;41.33;18.85;;;;;;;2.72;91.87;98679.33;1614416;88;21025;-68
2022/11/14 09:55:30;;;;;;;37.73;19.25;;;;;;;2.76;91.67;98681.13;1605839;88;21049;-69
2022/11/14 09:58:20;;;;;;;36.45;19.02;;;;;;;2.75;91.75;98679.38;1605500;88;21060;-69
2022/11/14 10:01:47;;;;;;;36.25;17.65;;;;;;;2.79;91.71;98675.95;1601746;88;21087;-69
2022/11/14 10:05:01;;;;;;;32.33;16.23;;;;;;;2.84;91.48;98668.14;1567071;90;21066;-68
2022/11/14 10:08:43;;;;;;;34.18;18.15;;;;;;;2.73;91.05;98670.20;1599965;87;21099;-70
2022/11/14 10:11:38;;;;;;;33.00;17.48;;;;;;;2.77;91.56;98662.84;1567699;90;21477;-68
2022/11/14 10:14:31;;;;;;;34.53;16.93;;;;;;;2.85;91.69;98648.95;1588838;89;21040;-69
2022/11/14 10:17:40;;;;;;;28.27;14.70;;;;;;;2.88;91.14;98645.96;1580349;88;21085;-69
2022/11/14 10:20:54;;;;;;;23.10;12.55;;;;;;;2.95;91.56;98649.95;1595093;89;21067;-69
2022/11/14 10:24:38;;;;;;;20.70;11.80;;;;;;;2.98;91.26;98644.73;1562710;90;21044;-69
2022/11/14 10:27:33;;;;;;;23.30;11.50;;;;;;;3.03;91.04;98641.73;1589941;87;21081;-68
2022/11/14 10:30:19;;;;;;;23.07;12.55;;;;;;;3.06;90.71;98644.40;1600173;88;21085;-69
2022/11/14 10:33:21;;;;;;;17.87;10.50;;;;;;;3.07;90.93;98643.98;1588996;89;21032;-69
2022/11/14 10:36:20;;;;;;;16.45;10.13;;;;;;;3.13;90.96;98638.80;1588727;88;21072;-70
2022/11/14 10:39:30;;;;;;;18.42;10.65;;;;;;;3.23;91.34;98632.80;1589664;89;21093;-70
2022/11/14 10:42:32;;;;;;;20.82;11.38;;;;;;;3.28;90.42;98635.03;1600502;87;21013;-70
2022/11/14 10:45:34;;;;;;;21.50;12.07;;;;;;;3.30;90.56;98629.39;1586667;89;21068;-70
2022/11/14 10:48:35;;;;;;;22.50;12.58;;;;;;;3.39;90.73;98626.39;1559835;90;21056;-69
2022/11/14 10:51:41;;;;;;;28.80;12.82;;;;;;;3.40;89.49;98622.48;1597271;87;21012;-68
2022/11/14 10:54:45;;;;;;;23.73;13.65;;;;;;;3.31;90.06;98618.46;1563011;90;21061;-68
2022/11/14 10:57:31;;;;;;;18.35;11.45;;;;;;;3.36;90.31;98614.14;1589383;89;21525;-68
2022/11/14 11:00:21;;;;;;;20.40;10.93;;;;;;;3.37;89.70;98612.41;1588277;88;21088;-69
2022/11/14 11:03:07;;;;;;;18.95;10.60;;;;;;;3.34;90.36;98611.95;1598396;90;20992;-69
2022/11/14 11:05:59;;;;;;;17.98;10.93;;;;;;;3.46;90.44;98616.43;1646813;87;21054;-69
2022/11/14 11:11:55;;;;;;;17.07;11.38;;;;;;;3.64;90.32;98617.44;1637192;87;21013;-70
2022/11/14 11:14:41;;;;;;;18.10;11.43;;;;;;;3.69;90.12;98610.07;1638499;87;21071;-67
2022/11/14 11:17:25;;;;;;;26.57;14.13;;;;;;;3.79;90.33;98608.38;1640626;87;21040;-69
2022/11/14 11:20:33;;;;;;;27.73;17.60;;;;;;;3.83;89.12;98603.61;1639551;87;21517;-69
2022/11/14 11:23:23;;;;;;;26.27;13.78;;;;;;;3.82;89.32;98606.25;1628998;87;21020;-75
2022/11/14 11:26:25;;;;;;;25.20;14.58;;;;;;;3.83;89.47;98604.92;1635296;87;21481;-74
2022/11/14 11:29:15;;;;;;;29.30;14.68;;;;;;;3.82;89.41;98600.55;1625528;87;21493;-74
2022/11/14 11:32:00;;;;;;;28.35;16.07;;;;;;;3.82;89.58;98594.00;1636867;87;21028;-74
2022/11/14 11:34:45;;;;;;;31.35;16.00;;;;;;;3.83;89.56;98589.64;1643166;87;22157;-74
2022/11/14 11:37:53;;;;;;;34.27;17.40;;;;;;;3.82;89.56;98594.00;1629858;87;21079;-75
2022/11/14 11:40:40;;;;;;;30.82;16.17;;;;;;;3.82;89.53;98597.93;1625081;87;21028;-76
2022/11/14 11:43:44;;;;;;;28.40;15.28;;;;;;;3.86;89.40;98594.03;1638874;87;21525;-76
2022/11/14 11:46:37;;;;;;;27.82;14.83;;;;;;;3.92;89.70;98593.64;1637275;87;21000;-76
2022/11/14 11:49:45;;;;;;;27.48;14.28;;;;;;;3.93;89.16;98582.70;1636348;87;21064;-78
2022/11/14 11:53:01;;;;;;;26.50;15.13;;;;;;;3.93;89.33;98581.39;1631787;87;21047;-76
2022/11/14 11:55:54;;;;;;;25.95;15.38;;;;;;;3.99;89.90;98584.08;1631100;87;21509;-76
2022/11/14 11:58:53;;;;;;;21.52;13.00;;;;;;;4.10;89.66;98571.00;1589602;90;21064;-76
2022/11/14 12:01:38;;;;;;;23.07;12.78;;;;;;;4.18;89.44;98566.69;1599129;89;21040;-76
2022/11/14 12:04:24;;;;;;;24.10;13.40;;;;;;;4.24;89.44;98554.05;1646464;87;21752;-77
2022/11/14 12:07:17;;;;;;;21.97;13.65;;;;;;;4.31;89.44;98554.92;1648882;87;21043;-77
2022/11/14 12:10:16;;;;;;;29.50;14.47;;;;;;;4.41;89.67;98551.92;1649778;87;20989;-76
2022/11/14 12:13:35;;;;;;;23.98;14.33;;;;;;;4.44;89.47;98549.33;1633795;87;21465;-76
2022/11/14 12:16:58;;;;;;;23.67;13.70;;;;;;;4.49;89.37;98550.22;1634717;87;21009;-77
2022/11/14 12:20:33;;;;;;;25.12;15.00;;;;;;;4.45;89.39;98545.83;1634701;87;21494;-76
2022/11/14 12:23:48;;;;;;;23.73;13.15;;;;;;;4.51;89.15;98551.09;1589372;87;21037;-76
2022/11/14 12:27:03;;;;;;;22.02;12.93;;;;;;;4.50;88.66;98546.72;1638790;87;21065;-76
2022/11/14 12:30:15;;;;;;;27.58;14.55;;;;;;;4.43;89.06;98537.94;1636779;87;21072;-77
2022/11/14 12:33:20;;;;;;;26.37;14.70;;;;;;;4.36;88.64;98542.28;1632926;87;21069;-79
2022/11/14 12:36:08;;;;;;;;;;;;;;;4.36;89.11;98540.97;1635861;87;21035;-78
2022/11/14 12:38:54;;;;;;;28.52;15.05;;;;;;;4.40;89.46;98541.85;1631990;87;20108;-77
2022/11/14 12:41:39;;;;;;;28.05;15.53;;;;;;;4.43;89.48;98543.61;1633678;87;21036;-76
2022/11/14 12:44:33;;;;;;;30.20;16.67;;;;;;;4.44;88.79;98540.14;1635082;87;21119;-76
2022/11/14 12:47:27;;;;;;;30.50;18.07;;;;;;;4.38;88.73;98533.11;1635649;87;21028;-76
2022/11/14 12:50:35;;;;;;;37.38;18.37;;;;;;;4.31;88.64;98534.83;1638767;87;21474;-76
2022/11/14 12:53:38;;;;;;;31.75;17.65;;;;;;;4.28;88.75;98532.17;1635627;87;21481;-76
2022/11/14 12:56:34;;;;;;;40.55;20.90;;;;;;;4.21;88.67;98522.12;1630734;87;21024;-76
2022/11/14 12:59:42;;;;;;;36.65;19.73;;;;;;;4.21;88.45;98528.67;1634041;87;21080;-76
2022/11/14 13:02:52;;;;;;;34.78;18.37;;;;;;;4.20;89.09;98524.72;1632588;87;21438;-72
2022/11/14 13:06:07;;;;;;;33.15;16.82;;;;;;;4.20;89.34;98522.10;1618718;87;21115;-74
2022/11/14 13:09:16;;;;;;;28.45;16.20;;;;;;;4.22;89.52;98526.48;1635883;87;21023;-74
2022/11/14 13:22:18;;;;;;;34.48;18.55;;;;;;;3.96;89.34;98523.72;1632150;87;21067;-78
2022/11/14 13:25:17;;;;;;;35.30;18.67;;;;;;;3.98;89.53;98522.42;1635792;87;21457;-78